sensor_id;sensor_type;location;lat;lon;timestamp;pressure;altitude;pressure_sealevel;temperature;humidity
36284;BME280;56085;48.910;9.478;2023-01-16T00:00:10;97073.56;;;2.46;70.70
36284;BME280;56085;48.910;9.478;2023-01-16T00:02:36;97074.22;;;2.42;70.94
36284;BME280;56085;48.910;9.478;2023-01-16T00:05:01;97067.19;;;2.41;70.65
36284;BME280;56085;48.910;9.478;2023-01-16T00:07:26;97057.06;;;2.42;71.01
36284;BME280;56085;48.910;9.478;2023-01-16T00:09:51;97048.66;;;2.47;70.84
36284;BME280;56085;48.910;9.478;2023-01-16T00:12:17;97044.56;;;2.53;71.02
36284;BME280;56085;48.910;9.478;2023-01-16T00:14:42;97040.47;;;2.59;70.86
36284;BME280;56085;48.910;9.478;2023-01-16T00:17:07;97032.09;;;2.65;70.89
36284;BME280;56085;48.910;9.478;2023-01-16T00:19:32;97025.13;;;2.67;70.49
36284;BME280;56085;48.910;9.478;2023-01-16T00:21:57;97027.19;;;2.70;70.86
36284;BME280;56085;48.910;9.478;2023-01-16T00:24:22;97026.38;;;2.70;70.74
36284;BME280;56085;48.910;9.478;2023-01-16T00:26:51;97017.06;;;2.71;70.74
36284;BME280;56085;48.910;9.478;2023-01-16T00:29:16;97010.00;;;2.70;70.58
36284;BME280;56085;48.910;9.478;2023-01-16T00:31:41;96999.09;;;2.70;70.35
36284;BME280;56085;48.910;9.478;2023-01-16T00:34:06;97004.22;;;2.71;70.24
36284;BME280;56085;48.910;9.478;2023-01-16T00:36:31;96997.53;;;2.69;70.27
36284;BME280;56085;48.910;9.478;2023-01-16T00:38:57;96993.97;;;2.68;70.44
36284;BME280;56085;48.910;9.478;2023-01-16T00:41:22;96991.72;;;2.70;70.66
36284;BME280;56085;48.910;9.478;2023-01-16T00:43:47;96987.06;;;2.71;70.35
36284;BME280;56085;48.910;9.478;2023-01-16T00:46:12;96980.81;;;2.70;70.38
36284;BME280;56085;48.910;9.478;2023-01-16T00:48:37;96983.97;;;2.72;70.43
36284;BME280;56085;48.910;9.478;2023-01-16T00:51:03;96978.53;;;2.72;70.14
36284;BME280;56085;48.910;9.478;2023-01-16T00:53:28;96973.06;;;2.72;70.13
36284;BME280;56085;48.910;9.478;2023-01-16T00:55:53;96965.66;;;2.73;70.29
36284;BME280;56085;48.910;9.478;2023-01-16T00:58:18;96955.22;;;2.75;70.04
36284;BME280;56085;48.910;9.478;2023-01-16T01:00:44;96951.00;;;2.77;70.08
36284;BME280;56085;48.910;9.478;2023-01-16T01:03:09;96933.59;;;2.82;70.08
36284;BME280;56085;48.910;9.478;2023-01-16T01:05:35;96943.91;;;2.89;69.89
36284;BME280;56085;48.910;9.478;2023-01-16T01:08:01;96933.56;;;2.94;70.01
36284;BME280;56085;48.910;9.478;2023-01-16T01:10:28;96935.59;;;2.97;69.86
36284;BME280;56085;48.910;9.478;2023-01-16T01:12:53;96927.41;;;2.97;69.72
36284;BME280;56085;48.910;9.478;2023-01-16T01:15:20;96923.53;;;2.99;69.65
36284;BME280;56085;48.910;9.478;2023-01-16T01:17:45;96917.75;;;3.00;69.55
36284;BME280;56085;48.910;9.478;2023-01-16T01:20:10;96922.06;;;3.01;69.51
36284;BME280;56085;48.910;9.478;2023-01-16T01:22:35;96918.09;;;2.99;69.75
36284;BME280;56085;48.910;9.478;2023-01-16T01:25:00;96915.84;;;2.88;69.51
36284;BME280;56085;48.910;9.478;2023-01-16T01:27:26;96918.69;;;2.79;69.46
36284;BME280;56085;48.910;9.478;2023-01-16T01:29:51;96916.88;;;2.71;69.30
36284;BME280;56085;48.910;9.478;2023-01-16T01:32:16;96909.28;;;2.65;69.38
36284;BME280;56085;48.910;9.478;2023-01-16T01:34:41;96897.66;;;2.55;69.16
36284;BME280;56085;48.910;9.478;2023-01-16T01:37:06;96909.28;;;2.52;69.43
36284;BME280;56085;48.910;9.478;2023-01-16T01:39:32;96892.00;;;2.48;69.36
36284;BME280;56085;48.910;9.478;2023-01-16T01:41:58;96889.59;;;2.47;69.40
36284;BME280;56085;48.910;9.478;2023-01-16T01:44:52;96890.28;;;2.43;69.32
36284;BME280;56085;48.910;9.478;2023-01-16T01:47:19;96875.41;;;2.41;68.92
36284;BME280;56085;48.910;9.478;2023-01-16T01:49:46;96877.25;;;2.37;69.37
36284;BME280;56085;48.910;9.478;2023-01-16T01:52:11;96882.22;;;2.35;69.28
36284;BME280;56085;48.910;9.478;2023-01-16T01:54:42;96874.28;;;2.30;69.22
36284;BME280;56085;48.910;9.478;2023-01-16T01:57:10;96868.72;;;2.26;69.50
36284;BME280;56085;48.910;9.478;2023-01-16T01:59:40;96864.75;;;2.23;69.33
36284;BME280;56085;48.910;9.478;2023-01-16T02:02:08;96852.03;;;2.15;69.65
36284;BME280;56085;48.910;9.478;2023-01-16T02:04:34;96834.31;;;2.09;69.35
36284;BME280;56085;48.910;9.478;2023-01-16T02:07:05;96822.81;;;2.03;69.38
36284;BME280;56085;48.910;9.478;2023-01-16T02:09:31;96818.41;;;1.99;69.27
36284;BME280;56085;48.910;9.478;2023-01-16T02:11:57;96812.97;;;1.99;69.36
36284;BME280;56085;48.910;9.478;2023-01-16T02:14:25;96812.97;;;1.99;69.40
36284;BME280;56085;48.910;9.478;2023-01-16T02:16:54;96813.75;;;1.99;69.37
36284;BME280;56085;48.910;9.478;2023-01-16T02:33:04;96746.97;;;1.81;69.38
36284;BME280;56085;48.910;9.478;2023-01-16T02:38:00;96732.88;;;1.79;69.97
36284;BME280;56085;48.910;9.478;2023-01-16T02:40:44;96725.28;;;1.72;69.60
36284;BME280;56085;48.910;9.478;2023-01-16T02:43:19;96724.50;;;1.71;69.81
36284;BME280;56085;48.910;9.478;2023-01-16T02:45:52;96729.03;;;1.67;69.86
36284;BME280;56085;48.910;9.478;2023-01-16T02:53:23;96703.25;;;1.65;70.17
36284;BME280;56085;48.910;9.478;2023-01-16T02:55:55;96686.13;;;1.64;69.79
36284;BME280;56085;48.910;9.478;2023-01-16T02:58:22;96687.94;;;1.60;69.65
36284;BME280;56085;48.910;9.478;2023-01-16T03:00:52;96671.25;;;1.62;69.83
36284;BME280;56085;48.910;9.478;2023-01-16T03:05:56;96656.16;;;1.64;70.31
36284;BME280;56085;48.910;9.478;2023-01-16T03:08:31;96642.88;;;1.63;70.21
36284;BME280;56085;48.910;9.478;2023-01-16T03:11:04;96637.31;;;1.59;70.11
36284;BME280;56085;48.910;9.478;2023-01-16T03:13:43;96636.66;;;1.62;70.49
36284;BME280;56085;48.910;9.478;2023-01-16T03:21:10;96603.50;;;1.60;70.07
36284;BME280;56085;48.910;9.478;2023-01-16T03:26:11;96598.03;;;1.60;70.21
36284;BME280;56085;48.910;9.478;2023-01-16T03:28:52;96594.28;;;1.65;70.37
36284;BME280;56085;48.910;9.478;2023-01-16T03:31:25;96585.41;;;1.68;70.39
36284;BME280;56085;48.910;9.478;2023-01-16T03:34:04;96585.97;;;1.73;70.36
36284;BME280;56085;48.910;9.478;2023-01-16T03:36:38;96590.50;;;1.82;70.46
36284;BME280;56085;48.910;9.478;2023-01-16T03:39:06;96574.22;;;1.85;70.89
36284;BME280;56085;48.910;9.478;2023-01-16T03:41:32;96564.56;;;1.88;70.59
36284;BME280;56085;48.910;9.478;2023-01-16T03:44:03;96548.22;;;1.88;70.45
36284;BME280;56085;48.910;9.478;2023-01-16T03:46:31;96543.81;;;1.83;70.56
36284;BME280;56085;48.910;9.478;2023-01-16T03:49:02;96544.06;;;1.78;70.23
36284;BME280;56085;48.910;9.478;2023-01-16T03:51:30;96535.78;;;1.74;70.30
36284;BME280;56085;48.910;9.478;2023-01-16T03:56:30;96537.63;;;1.70;70.34
36284;BME280;56085;48.910;9.478;2023-01-16T03:58:57;96528.31;;;1.71;70.23
36284;BME280;56085;48.910;9.478;2023-01-16T04:01:24;96526.56;;;1.79;70.56
36284;BME280;56085;48.910;9.478;2023-01-16T04:04:05;96522.44;;;1.85;70.17
36284;BME280;56085;48.910;9.478;2023-01-16T04:06:35;96509.63;;;1.86;70.71
36284;BME280;56085;48.910;9.478;2023-01-16T04:09:03;96504.97;;;1.86;70.41
36284;BME280;56085;48.910;9.478;2023-01-16T04:11:30;96498.28;;;1.84;70.39
36284;BME280;56085;48.910;9.478;2023-01-16T04:13:58;96488.41;;;1.79;70.28
36284;BME280;56085;48.910;9.478;2023-01-16T04:16:24;96477.88;;;1.78;70.28
36284;BME280;56085;48.910;9.478;2023-01-16T04:18:50;96474.44;;;1.81;70.15
36284;BME280;56085;48.910;9.478;2023-01-16T04:21:16;96468.81;;;1.73;70.31
36284;BME280;56085;48.910;9.478;2023-01-16T04:23:42;96462.91;;;1.71;70.14
36284;BME280;56085;48.910;9.478;2023-01-16T04:26:07;96453.63;;;1.72;70.11
36284;BME280;56085;48.910;9.478;2023-01-16T04:28:33;96448.34;;;1.80;70.30
36284;BME280;56085;48.910;9.478;2023-01-16T04:30:58;96439.72;;;1.78;70.17
36284;BME280;56085;48.910;9.478;2023-01-16T04:33:23;96440.19;;;1.80;70.38
36284;BME280;56085;48.910;9.478;2023-01-16T04:35:48;96422.59;;;1.77;69.73
36284;BME280;56085;48.910;9.478;2023-01-16T04:38:14;96420.09;;;1.72;70.01
36284;BME280;56085;48.910;9.478;2023-01-16T04:40:39;96416.34;;;1.77;70.11
36284;BME280;56085;48.910;9.478;2023-01-16T04:43:04;96412.03;;;1.76;70.10
36284;BME280;56085;48.910;9.478;2023-01-16T04:45:29;96410.63;;;1.82;70.01
36284;BME280;56085;48.910;9.478;2023-01-16T04:47:54;96402.47;;;1.82;69.92
36284;BME280;56085;48.910;9.478;2023-01-16T04:50:20;96392.34;;;1.82;69.58
36284;BME280;56085;48.910;9.478;2023-01-16T04:52:45;96387.72;;;1.83;69.90
36284;BME280;56085;48.910;9.478;2023-01-16T04:55:10;96376.00;;;1.82;69.65
36284;BME280;56085;48.910;9.478;2023-01-16T04:57:35;96368.97;;;1.81;69.62
36284;BME280;56085;48.910;9.478;2023-01-16T05:00:01;96361.94;;;1.80;69.65
36284;BME280;56085;48.910;9.478;2023-01-16T05:02:27;96351.41;;;1.79;69.60
36284;BME280;56085;48.910;9.478;2023-01-16T05:04:52;96338.31;;;1.84;69.91
36284;BME280;56085;48.910;9.478;2023-01-16T05:07:17;96340.69;;;1.86;69.90
36284;BME280;56085;48.910;9.478;2023-01-16T05:09:42;96340.69;;;1.86;69.93
36284;BME280;56085;48.910;9.478;2023-01-16T05:12:07;96326.34;;;1.89;69.62
36284;BME280;56085;48.910;9.478;2023-01-16T05:14:33;96325.88;;;1.87;69.94
36284;BME280;56085;48.910;9.478;2023-01-16T05:16:58;96315.09;;;1.90;69.84
36284;BME280;56085;48.910;9.478;2023-01-16T05:19:23;96302.53;;;1.86;69.44
36284;BME280;56085;48.910;9.478;2023-01-16T05:21:48;96292.59;;;1.78;69.52
36284;BME280;56085;48.910;9.478;2023-01-16T05:24:13;96290.22;;;1.76;69.70
36284;BME280;56085;48.910;9.478;2023-01-16T05:26:39;96284.69;;;1.72;69.60
36284;BME280;56085;48.910;9.478;2023-01-16T05:29:04;96280.97;;;1.65;69.44
36284;BME280;56085;48.910;9.478;2023-01-16T05:31:29;96268.06;;;1.62;69.55
36284;BME280;56085;48.910;9.478;2023-01-16T05:33:54;96270.72;;;1.58;69.73
36284;BME280;56085;48.910;9.478;2023-01-16T05:36:19;96263.69;;;1.57;69.52
36284;BME280;56085;48.910;9.478;2023-01-16T05:38:44;96260.97;;;1.57;69.49
36284;BME280;56085;48.910;9.478;2023-01-16T05:41:11;96249.72;;;1.59;69.97
36284;BME280;56085;48.910;9.478;2023-01-16T05:43:36;96241.47;;;1.55;69.57
36284;BME280;56085;48.910;9.478;2023-01-16T05:46:01;96233.28;;;1.55;69.43
36284;BME280;56085;48.910;9.478;2023-01-16T05:48:28;96232.59;;;1.58;69.52
36284;BME280;56085;48.910;9.478;2023-01-16T05:50:55;96224.31;;;1.54;69.50
36284;BME280;56085;48.910;9.478;2023-01-16T05:53:20;96222.13;;;1.60;69.75
36284;BME280;56085;48.910;9.478;2023-01-16T05:55:46;96216.25;;;1.58;69.50
36284;BME280;56085;48.910;9.478;2023-01-16T05:58:12;96213.53;;;1.58;69.47
36284;BME280;56085;48.910;9.478;2023-01-16T06:00:38;96204.19;;;1.59;69.76
36284;BME280;56085;48.910;9.478;2023-01-16T06:03:04;96183.19;;;1.60;69.37
36284;BME280;56085;48.910;9.478;2023-01-16T06:05:29;96183.19;;;1.60;69.62
36284;BME280;56085;48.910;9.478;2023-01-16T06:07:55;96173.44;;;1.59;69.89
36284;BME280;56085;48.910;9.478;2023-01-16T06:10:21;96176.94;;;1.59;69.88
36284;BME280;56085;48.910;9.478;2023-01-16T06:12:46;96157.53;;;1.61;69.97
36284;BME280;56085;48.910;9.478;2023-01-16T06:15:11;96145.50;;;1.62;69.73
36284;BME280;56085;48.910;9.478;2023-01-16T06:17:36;96145.84;;;1.60;69.62
36284;BME280;56085;48.910;9.478;2023-01-16T06:20:02;96145.06;;;1.60;69.75
36284;BME280;56085;48.910;9.478;2023-01-16T06:22:27;96126.00;;;1.60;69.79
36284;BME280;56085;48.910;9.478;2023-01-16T06:24:52;96121.78;;;1.62;69.83
36284;BME280;56085;48.910;9.478;2023-01-16T06:27:17;96109.28;;;1.61;69.85
36284;BME280;56085;48.910;9.478;2023-01-16T06:29:43;96110.94;;;1.66;69.37
36284;BME280;56085;48.910;9.478;2023-01-16T06:32:08;96099.28;;;1.65;69.52
36284;BME280;56085;48.910;9.478;2023-01-16T06:34:33;96093.88;;;1.69;69.67
36284;BME280;56085;48.910;9.478;2023-01-16T06:36:58;96082.22;;;1.68;69.72
36284;BME280;56085;48.910;9.478;2023-01-16T06:39:23;96073.59;;;1.66;69.83
36284;BME280;56085;48.910;9.478;2023-01-16T06:41:49;96070.88;;;1.66;69.54
36284;BME280;56085;48.910;9.478;2023-01-16T06:44:14;96059.97;;;1.66;69.70
36284;BME280;56085;48.910;9.478;2023-01-16T06:46:39;96057.25;;;1.66;69.79
36284;BME280;56085;48.910;9.478;2023-01-16T06:49:04;96052.16;;;1.65;69.37
36284;BME280;56085;48.910;9.478;2023-01-16T06:51:29;96042.84;;;1.66;69.58
36284;BME280;56085;48.910;9.478;2023-01-16T06:53:55;96026.88;;;1.64;69.58
36284;BME280;56085;48.910;9.478;2023-01-16T06:56:20;96018.28;;;1.62;69.58
36284;BME280;56085;48.910;9.478;2023-01-16T06:58:45;96018.28;;;1.62;69.64
36284;BME280;56085;48.910;9.478;2023-01-16T07:01:11;96015.19;;;1.64;69.69
36284;BME280;56085;48.910;9.478;2023-01-16T07:03:36;96026.16;;;1.67;69.62
36284;BME280;56085;48.910;9.478;2023-01-16T07:06:01;96018.38;;;1.69;69.37
36284;BME280;56085;48.910;9.478;2023-01-16T07:08:26;96011.81;;;1.70;69.80
36284;BME280;56085;48.910;9.478;2023-01-16T07:10:52;96008.66;;;1.68;69.33
36284;BME280;56085;48.910;9.478;2023-01-16T07:13:17;95996.94;;;1.68;69.65
36284;BME280;56085;48.910;9.478;2023-01-16T07:15:46;95983.78;;;1.70;69.38
36284;BME280;56085;48.910;9.478;2023-01-16T07:18:31;95981.41;;;1.68;69.40
36284;BME280;56085;48.910;9.478;2023-01-16T07:21:14;95984.91;;;1.69;69.58
36284;BME280;56085;48.910;9.478;2023-01-16T07:24:00;95975.66;;;1.73;69.25
36284;BME280;56085;48.910;9.478;2023-01-16T07:26:25;95968.66;;;1.72;69.37
36284;BME280;56085;48.910;9.478;2023-01-16T07:28:51;95956.94;;;1.72;69.20
36284;BME280;56085;48.910;9.478;2023-01-16T07:31:17;95965.94;;;1.72;68.99
36284;BME280;56085;48.910;9.478;2023-01-16T07:33:43;95970.56;;;1.72;69.42
36284;BME280;56085;48.910;9.478;2023-01-16T07:36:08;95957.03;;;1.76;69.04
36284;BME280;56085;48.910;9.478;2023-01-16T07:38:33;95960.94;;;1.78;68.95
36284;BME280;56085;48.910;9.478;2023-01-16T07:40:58;95961.41;;;1.80;69.14
36284;BME280;56085;48.910;9.478;2023-01-16T07:43:24;95955.59;;;1.82;69.17
36284;BME280;56085;48.910;9.478;2023-01-16T07:45:49;95941.66;;;1.87;69.29
36284;BME280;56085;48.910;9.478;2023-01-16T07:48:20;95947.97;;;1.91;68.93
36284;BME280;56085;48.910;9.478;2023-01-16T07:50:49;95930.88;;;1.94;68.85
36284;BME280;56085;48.910;9.478;2023-01-16T07:53:15;95922.34;;;1.96;69.08
36284;BME280;56085;48.910;9.478;2023-01-16T07:55:41;95911.88;;;1.98;68.88
36284;BME280;56085;48.910;9.478;2023-01-16T07:58:06;95911.50;;;1.99;68.85
36284;BME280;56085;48.910;9.478;2023-01-16T08:00:31;95901.47;;;2.03;68.92
36284;BME280;56085;48.910;9.478;2023-01-16T08:02:56;95901.09;;;2.05;68.66
36284;BME280;56085;48.910;9.478;2023-01-16T08:05:21;95892.56;;;2.06;68.53
36284;BME280;56085;48.910;9.478;2023-01-16T08:07:47;95892.59;;;2.10;68.66
36284;BME280;56085;48.910;9.478;2023-01-16T08:10:14;95889.16;;;2.13;68.70
36284;BME280;56085;48.910;9.478;2023-01-16T08:12:39;95872.50;;;2.18;68.28
36284;BME280;56085;48.910;9.478;2023-01-16T08:15:07;95873.34;;;2.22;68.30
36284;BME280;56085;48.910;9.478;2023-01-16T08:17:49;95867.16;;;2.25;68.25
36284;BME280;56085;48.910;9.478;2023-01-16T08:20:27;95859.84;;;2.33;68.30
36284;BME280;56085;48.910;9.478;2023-01-16T08:22:55;95854.88;;;2.39;68.20
36284;BME280;56085;48.910;9.478;2023-01-16T08:25:22;95842.09;;;2.43;68.13
36284;BME280;56085;48.910;9.478;2023-01-16T08:30:50;95831.69;;;2.52;68.01
36284;BME280;56085;48.910;9.478;2023-01-16T08:33:16;95834.47;;;2.56;68.11
36284;BME280;56085;48.910;9.478;2023-01-16T08:35:41;95829.03;;;2.56;67.89
36284;BME280;56085;48.910;9.478;2023-01-16T08:38:06;95823.22;;;2.61;67.61
36284;BME280;56085;48.910;9.478;2023-01-16T08:40:31;95809.66;;;2.65;67.59
36284;BME280;56085;48.910;9.478;2023-01-16T08:42:56;95803.84;;;2.70;67.71
36284;BME280;56085;48.910;9.478;2023-01-16T08:45:40;95813.66;;;2.74;67.47
36284;BME280;56085;48.910;9.478;2023-01-16T08:48:24;95802.78;;;2.78;67.31
36284;BME280;56085;48.910;9.478;2023-01-16T08:51:15;95815.31;;;2.83;67.30
36284;BME280;56085;48.910;9.478;2023-01-16T08:53:47;95805.25;;;2.87;67.02
36284;BME280;56085;48.910;9.478;2023-01-16T08:56:12;95797.88;;;2.91;66.91
36284;BME280;56085;48.910;9.478;2023-01-16T08:58:37;95795.19;;;2.94;66.80
36284;BME280;56085;48.910;9.478;2023-01-16T09:01:02;95785.88;;;2.99;66.93
36284;BME280;56085;48.910;9.478;2023-01-16T09:03:28;95777.31;;;3.01;66.74
36284;BME280;56085;48.910;9.478;2023-01-16T09:05:53;95776.56;;;3.04;66.62
36284;BME280;56085;48.910;9.478;2023-01-16T09:08:18;95774.66;;;3.08;66.80
36284;BME280;56085;48.910;9.478;2023-01-16T09:10:43;95769.63;;;3.10;66.24
36284;BME280;56085;48.910;9.478;2023-01-16T09:13:28;95771.59;;;3.13;66.14
36284;BME280;56085;48.910;9.478;2023-01-16T09:16:12;95776.31;;;3.16;66.16
36284;BME280;56085;48.910;9.478;2023-01-16T09:18:37;95781.81;;;3.20;65.85
36284;BME280;56085;48.910;9.478;2023-01-16T09:21:02;95760.75;;;3.20;65.70
36284;BME280;56085;48.910;9.478;2023-01-16T09:23:27;95780.72;;;3.28;65.57
36284;BME280;56085;48.910;9.478;2023-01-16T09:25:53;95771.41;;;3.32;65.43
36284;BME280;56085;48.910;9.478;2023-01-16T09:28:18;95771.44;;;3.36;65.05
36284;BME280;56085;48.910;9.478;2023-01-16T09:30:43;95776.56;;;3.41;65.13
36284;BME280;56085;48.910;9.478;2023-01-16T09:33:08;95771.53;;;3.43;64.78
36284;BME280;56085;48.910;9.478;2023-01-16T09:35:33;95784.81;;;3.48;64.94
36284;BME280;56085;48.910;9.478;2023-01-16T09:37:58;95788.38;;;3.53;64.58
36284;BME280;56085;48.910;9.478;2023-01-16T09:40:23;95791.56;;;3.62;64.38
36284;BME280;56085;48.910;9.478;2023-01-16T09:45:55;95827.53;;;3.67;63.96
36284;BME280;56085;48.910;9.478;2023-01-16T09:48:30;95843.56;;;3.69;63.61
36284;BME280;56085;48.910;9.478;2023-01-16T09:50:57;95844.81;;;3.75;63.82
36284;BME280;56085;48.910;9.478;2023-01-16T09:56:17;95816.03;;;3.89;63.14
36284;BME280;56085;48.910;9.478;2023-01-16T09:59:14;95806.63;;;3.90;63.25
36284;BME280;56085;48.910;9.478;2023-01-16T10:01:42;95801.63;;;3.95;62.91
36284;BME280;56085;48.910;9.478;2023-01-16T10:04:20;95788.38;;;4.01;62.47
36284;BME280;56085;48.910;9.478;2023-01-16T10:11:50;95738.09;;;4.20;62.27
36284;BME280;56085;48.910;9.478;2023-01-16T10:16:47;95727.59;;;4.26;61.97
36284;BME280;56085;48.910;9.478;2023-01-16T10:21:47;95715.84;;;4.22;62.04
36284;BME280;56085;48.910;9.478;2023-01-16T10:27:00;95704.53;;;4.23;61.35
36284;BME280;56085;48.910;9.478;2023-01-16T10:34:37;95701.06;;;4.33;60.95
36284;BME280;56085;48.910;9.478;2023-01-16T10:37:05;95687.38;;;4.33;60.30
36284;BME280;56085;48.910;9.478;2023-01-16T10:39:32;95674.88;;;4.36;59.95
36284;BME280;56085;48.910;9.478;2023-01-16T10:42:20;95661.63;;;4.38;59.96
36284;BME280;56085;48.910;9.478;2023-01-16T10:47:48;95664.75;;;4.40;59.34
36284;BME280;56085;48.910;9.478;2023-01-16T10:50:33;95654.97;;;4.39;59.58
36284;BME280;56085;48.910;9.478;2023-01-16T10:52:59;95669.44;;;4.40;59.30
36284;BME280;56085;48.910;9.478;2023-01-16T10:55:25;95664.34;;;4.42;59.36
36284;BME280;56085;48.910;9.478;2023-01-16T10:57:55;95648.34;;;4.40;58.83
36284;BME280;56085;48.910;9.478;2023-01-16T11:00:31;95622.97;;;4.47;58.54
36284;BME280;56085;48.910;9.478;2023-01-16T11:02:58;95637.81;;;4.49;58.69
36284;BME280;56085;48.910;9.478;2023-01-16T11:07:53;95659.72;;;4.53;58.09
36284;BME280;56085;48.910;9.478;2023-01-16T11:10:18;95626.50;;;4.58;58.29
36284;BME280;56085;48.910;9.478;2023-01-16T11:12:43;95635.88;;;4.57;57.83
36284;BME280;56085;48.910;9.478;2023-01-16T11:15:28;95630.78;;;4.63;58.17
36284;BME280;56085;48.910;9.478;2023-01-16T11:18:33;95626.91;;;4.64;58.19
36284;BME280;56085;48.910;9.478;2023-01-16T11:21:00;95621.03;;;4.65;57.80
36284;BME280;56085;48.910;9.478;2023-01-16T11:23:27;95616.75;;;4.68;57.74
36284;BME280;56085;48.910;9.478;2023-01-16T11:25:54;95612.03;;;4.68;58.08
36284;BME280;56085;48.910;9.478;2023-01-16T11:28:22;95600.72;;;4.77;58.23
36284;BME280;56085;48.910;9.478;2023-01-16T11:30:51;95588.59;;;4.78;58.11
36284;BME280;56085;48.910;9.478;2023-01-16T11:33:19;95594.47;;;4.77;57.83
36284;BME280;56085;48.910;9.478;2023-01-16T11:35:49;95582.34;;;4.70;57.26
36284;BME280;56085;48.910;9.478;2023-01-16T11:38:15;95578.03;;;4.73;57.44
36284;BME280;56085;48.910;9.478;2023-01-16T11:40:45;95580.38;;;4.78;56.88
36284;BME280;56085;48.910;9.478;2023-01-16T11:43:13;95571.41;;;4.81;57.50
36284;BME280;56085;48.910;9.478;2023-01-16T11:45:57;95559.66;;;4.81;56.79
36284;BME280;56085;48.910;9.478;2023-01-16T11:48:40;95540.91;;;4.86;57.61
36284;BME280;56085;48.910;9.478;2023-01-16T11:51:05;95540.13;;;4.89;57.02
36284;BME280;56085;48.910;9.478;2023-01-16T11:53:32;95539.72;;;4.87;56.71
36284;BME280;56085;48.910;9.478;2023-01-16T12:01:00;95510.78;;;4.79;56.71
36284;BME280;56085;48.910;9.478;2023-01-16T12:06:40;95484.59;;;4.78;57.35
36284;BME280;56085;48.910;9.478;2023-01-16T12:09:19;95481.47;;;4.83;57.17
36284;BME280;56085;48.910;9.478;2023-01-16T12:29:59;95422.66;;;5.31;57.31
36284;BME280;56085;48.910;9.478;2023-01-16T12:33:30;95429.69;;;5.36;57.45
36284;BME280;56085;48.910;9.478;2023-01-16T12:35:29;95409.34;;;5.40;57.97
36284;BME280;56085;48.910;9.478;2023-01-16T12:37:59;95414.81;;;5.40;57.33
36284;BME280;56085;48.910;9.478;2023-01-16T12:43:01;95397.94;;;5.49;57.39
36284;BME280;56085;48.910;9.478;2023-01-16T12:45:47;95391.25;;;5.50;57.89
36284;BME280;56085;48.910;9.478;2023-01-16T12:51:02;95387.34;;;5.55;57.93
36284;BME280;56085;48.910;9.478;2023-01-16T12:56:22;95388.41;;;5.72;58.26
36284;BME280;56085;48.910;9.478;2023-01-16T12:58:51;95378.97;;;5.80;58.22
36284;BME280;56085;48.910;9.478;2023-01-16T13:06:40;95367.72;;;6.23;58.20
36284;BME280;56085;48.910;9.478;2023-01-16T13:09:03;95350.94;;;6.63;57.96
36284;BME280;56085;48.910;9.478;2023-01-16T13:11:38;95336.25;;;6.80;58.09
36284;BME280;56085;48.910;9.478;2023-01-16T13:14:25;95319.00;;;6.38;58.04
36284;BME280;56085;48.910;9.478;2023-01-16T13:17:02;95325.44;;;6.21;57.82
36284;BME280;56085;48.910;9.478;2023-01-16T13:19:30;95330.16;;;6.17;57.72
36284;BME280;56085;48.910;9.478;2023-01-16T13:24:33;95308.50;;;6.29;58.23
36284;BME280;56085;48.910;9.478;2023-01-16T13:27:01;95309.69;;;6.28;57.88
36284;BME280;56085;48.910;9.478;2023-01-16T13:29:33;95303.91;;;6.16;58.63
36284;BME280;56085;48.910;9.478;2023-01-16T13:32:05;95306.31;;;6.10;58.68
36284;BME280;56085;48.910;9.478;2023-01-16T13:34:33;95321.94;;;6.13;58.37
36284;BME280;56085;48.910;9.478;2023-01-16T13:37:07;95299.28;;;6.09;58.19
36284;BME280;56085;48.910;9.478;2023-01-16T13:42:06;95298.41;;;6.16;58.40
36284;BME280;56085;48.910;9.478;2023-01-16T13:44:37;95287.66;;;6.36;58.45
36284;BME280;56085;48.910;9.478;2023-01-16T13:47:23;95288.94;;;6.96;57.88
36284;BME280;56085;48.910;9.478;2023-01-16T13:49:53;95273.47;;;7.68;58.99
36284;BME280;56085;48.910;9.478;2023-01-16T13:52:20;95286.97;;;7.86;58.55
36284;BME280;56085;48.910;9.478;2023-01-16T13:54:46;95264.53;;;8.11;58.50
36284;BME280;56085;48.910;9.478;2023-01-16T13:57:21;95260.81;;;7.74;57.79
36284;BME280;56085;48.910;9.478;2023-01-16T13:59:54;95309.13;;;10.53;58.20
36284;BME280;56085;48.910;9.478;2023-01-16T14:02:25;95276.97;;;11.60;58.23
36284;BME280;56085;48.910;9.478;2023-01-16T14:10:42;95224.63;;;12.39;56.49
36284;BME280;56085;48.910;9.478;2023-01-16T14:13:15;95239.41;;;10.32;55.72
36284;BME280;56085;48.910;9.478;2023-01-16T14:15:58;95237.97;;;9.08;55.29
36284;BME280;56085;48.910;9.478;2023-01-16T14:18:43;95220.69;;;8.00;54.70
36284;BME280;56085;48.910;9.478;2023-01-16T14:21:26;95224.84;;;7.38;54.46
36284;BME280;56085;48.910;9.478;2023-01-16T14:23:57;95228.94;;;7.26;54.46
36284;BME280;56085;48.910;9.478;2023-01-16T14:26:32;95211.13;;;7.07;55.19
36284;BME280;56085;48.910;9.478;2023-01-16T14:28:58;95213.03;;;6.79;54.51
36284;BME280;56085;48.910;9.478;2023-01-16T14:31:26;95206.06;;;6.74;54.90
36284;BME280;56085;48.910;9.478;2023-01-16T14:33:53;95201.69;;;6.80;54.98
36284;BME280;56085;48.910;9.478;2023-01-16T14:36:20;95208.28;;;6.83;55.06
36284;BME280;56085;48.910;9.478;2023-01-16T14:38:46;95202.22;;;6.68;55.46
36284;BME280;56085;48.910;9.478;2023-01-16T14:41:14;95202.78;;;6.52;54.83
36284;BME280;56085;48.910;9.478;2023-01-16T14:46:53;95191.97;;;7.30;55.09
36284;BME280;56085;48.910;9.478;2023-01-16T14:49:41;95188.16;;;6.62;55.33
36284;BME280;56085;48.910;9.478;2023-01-16T14:55:25;95185.72;;;6.37;55.25
36284;BME280;56085;48.910;9.478;2023-01-16T14:57:53;95180.59;;;7.01;55.28
36284;BME280;56085;48.910;9.478;2023-01-16T15:00:20;95199.34;;;7.61;55.28
36284;BME280;56085;48.910;9.478;2023-01-16T15:02:49;95149.09;;;9.21;55.34
36284;BME280;56085;48.910;9.478;2023-01-16T15:05:18;95164.91;;;9.17;55.29
36284;BME280;56085;48.910;9.478;2023-01-16T15:07:56;95147.50;;;8.47;55.03
36284;BME280;56085;48.910;9.478;2023-01-16T15:10:28;95159.59;;;7.89;54.75
36284;BME280;56085;48.910;9.478;2023-01-16T15:13:41;95140.88;;;7.33;54.65
36284;BME280;56085;48.910;9.478;2023-01-16T15:15:42;95136.47;;;7.12;54.36
36284;BME280;56085;48.910;9.478;2023-01-16T15:18:12;95133.38;;;6.82;54.95
36284;BME280;56085;48.910;9.478;2023-01-16T15:20:57;95135.81;;;6.77;54.54